^^
Saratoga-Weather Station Historical Data
Daily Summary for April 27, 2020 Units:  Both    English   Metric
Daily Weekly Monthly Yearly Custom
  High: Low: Average:
Temperature: 54.5 °F /  12.5 °C 42.1 °F /  5.6 °C 46.9 °F /  8.3 °C
Dew Point: 44.6 °F /  7 °C 38.5 °F /  3.6 °C 40.1 °F /  4.5 °C
Humidity: 88% 64% 78%
Wind Speed: 0.9mph /  1.4km/h - 0.1mph /  0.1km/h
Wind Gust: 2mph /  3.2km/h - -
Wind- - South
Pressure: 29.8 in /  1008.8 hPa 29.8 in /  1008.1 hPa -
Precipitation: 0 in /  0.0 mm    
Historical Graphs
 
 
Tabular Data for April 27, 2020
Time Temperature Dew Point Pressure Wind Wind Speed Wind Gust Humidity Rainfall Rate (Hourly) solar
00:02 52.7 °F /  11.5 °C 40.8 °F /  4.9 °C 29.8in /  1008.5hPa Calm     64% 0in /  0.0mm 0 W/m2
00:07 52.3 °F /  11.3 °C 41 °F /  5 °C 29.8in /  1008.5hPa Calm     65% 0in /  0.0mm 0 W/m2
00:12 52 °F /  11.1 °C 40.6 °F /  4.8 °C 29.8in /  1008.5hPa Calm   1mph /  1.6km/h 65% 0in /  0.0mm 0 W/m2
00:17 52 °F /  11.1 °C 40.6 °F /  4.8 °C 29.8in /  1008.5hPa WNW 0.9mph /  1.4km/h 2mph /  3.2km/h 65% 0in /  0.0mm 0 W/m2
00:22 52 °F /  11.1 °C 40.6 °F /  4.8 °C 29.8in /  1008.5hPa Calm   1mph /  1.6km/h 65% 0in /  0.0mm 0 W/m2
00:27 52 °F /  11.1 °C 40.6 °F /  4.8 °C 29.8in /  1008.5hPa Calm   2mph /  3.2km/h 65% 0in /  0.0mm 0 W/m2
00:32 51.8 °F /  11 °C 40.5 °F /  4.7 °C 29.8in /  1008.5hPa Calm     65% 0in /  0.0mm 0 W/m2
00:37 51.6 °F /  10.9 °C 40.3 °F /  4.6 °C 29.8in /  1008.5hPa Calm     65% 0in /  0.0mm 0 W/m2
00:42 51.6 °F /  10.9 °C 40.6 °F /  4.8 °C 29.8in /  1008.5hPa Calm   1mph /  1.6km/h 66% 0in /  0.0mm 0 W/m2
00:47 51.4 °F /  10.8 °C 40.5 °F /  4.7 °C 29.8in /  1008.5hPa Calm     66% 0in /  0.0mm 0 W/m2
00:52 51.3 °F /  10.7 °C 40.3 °F /  4.6 °C 29.8in /  1008.5hPa Calm     66% 0in /  0.0mm 0 W/m2
00:57 51.1 °F /  10.6 °C 40.5 °F /  4.7 °C 29.8in /  1008.5hPa Calm     67% 0in /  0.0mm 0 W/m2
01:02 50.7 °F /  10.4 °C 40.1 °F /  4.5 °C 29.8in /  1008.5hPa Calm     67% 0in /  0.0mm 0 W/m2
01:07 50.5 °F /  10.3 °C 39.9 °F /  4.4 °C 29.8in /  1008.5hPa Calm     67% 0in /  0.0mm 0 W/m2
01:12 50.2 °F /  10.1 °C 39.6 °F /  4.2 °C 29.8in /  1008.5hPa Calm     67% 0in /  0.0mm 0 W/m2
01:17 49.8 °F /  9.9 °C 39.7 °F /  4.3 °C 29.8in /  1008.5hPa Calm     68% 0in /  0.0mm 0 W/m2
01:22 49.6 °F /  9.8 °C 39.6 °F /  4.2 °C 29.8in /  1008.5hPa Calm     68% 0in /  0.0mm 0 W/m2
01:27 49.6 °F /  9.8 °C 39.9 °F /  4.4 °C 29.8in /  1008.5hPa Calm     69% 0in /  0.0mm 0 W/m2
01:32 49.5 °F /  9.7 °C 39.7 °F /  4.3 °C 29.8in /  1008.5hPa Calm     69% 0in /  0.0mm 0 W/m2
01:37 49.5 °F /  9.7 °C 40.1 °F /  4.5 °C 29.8in /  1008.5hPa Calm     70% 0in /  0.0mm 0 W/m2
01:42 49.3 °F /  9.6 °C 40.3 °F /  4.6 °C 29.8in /  1008.5hPa Calm     71% 0in /  0.0mm 0 W/m2
01:47 49.3 °F /  9.6 °C 40.3 °F /  4.6 °C 29.8in /  1008.5hPa Calm     71% 0in /  0.0mm 0 W/m2
01:52 48.9 °F /  9.4 °C 39.9 °F /  4.4 °C 29.8in /  1008.5hPa Calm     71% 0in /  0.0mm 0 W/m2
01:57 48.7 °F /  9.3 °C 40.1 °F /  4.5 °C 29.8in /  1008.5hPa Calm     72% 0in /  0.0mm 0 W/m2
02:02 48.6 °F /  9.2 °C 39.9 °F /  4.4 °C 29.8in /  1008.5hPa Calm   1mph /  1.6km/h 72% 0in /  0.0mm 0 W/m2
02:07 48.4 °F /  9.1 °C 40.1 °F /  4.5 °C 29.8in /  1008.5hPa Calm     73% 0in /  0.0mm 0 W/m2
02:12 48 °F /  8.9 °C 39.7 °F /  4.3 °C 29.8in /  1008.5hPa WSW 0.9mph /  1.4km/h 2mph /  3.2km/h 73% 0in /  0.0mm 0 W/m2
02:17 48.2 °F /  9 °C 39.9 °F /  4.4 °C 29.8in /  1008.5hPa WSW 0.9mph /  1.4km/h 2mph /  3.2km/h 73% 0in /  0.0mm 0 W/m2
02:22 48.4 °F /  9.1 °C 40.1 °F /  4.5 °C 29.8in /  1008.5hPa Calm   1mph /  1.6km/h 73% 0in /  0.0mm 0 W/m2
02:27 48.2 °F /  9 °C 40.3 °F /  4.6 °C 29.8in /  1008.5hPa Calm     74% 0in /  0.0mm 0 W/m2
02:32 47.8 °F /  8.8 °C 39.9 °F /  4.4 °C 29.8in /  1008.5hPa Calm   1mph /  1.6km/h 74% 0in /  0.0mm 0 W/m2
02:37 47.7 °F /  8.7 °C 40.1 °F /  4.5 °C 29.8in /  1008.5hPa Calm     75% 0in /  0.0mm 0 W/m2
02:42 47.5 °F /  8.6 °C 39.9 °F /  4.4 °C 29.8in /  1008.5hPa Calm     75% 0in /  0.0mm 0 W/m2
02:47 47.3 °F /  8.5 °C 40.1 °F /  4.5 °C 29.8in /  1008.5hPa Calm     76% 0in /  0.0mm 0 W/m2
02:52 47.1 °F /  8.4 °C 39.9 °F /  4.4 °C 29.8in /  1008.5hPa Calm     76% 0in /  0.0mm 0 W/m2
02:57 46.9 °F /  8.3 °C 39.7 °F /  4.3 °C 29.8in /  1008.5hPa Calm     76% 0in /  0.0mm 0 W/m2
03:02 46.6 °F /  8.1 °C 39.7 °F /  4.3 °C 29.8in /  1008.5hPa Calm     77% 0in /  0.0mm 0 W/m2
03:07 46.4 °F /  8 °C 39.9 °F /  4.4 °C 29.8in /  1008.5hPa Calm     78% 0in /  0.0mm 0 W/m2
03:12 46.2 °F /  7.9 °C 39.7 °F /  4.3 °C 29.8in /  1008.5hPa Calm     78% 0in /  0.0mm 0 W/m2
03:17 46 °F /  7.8 °C 39.9 °F /  4.4 °C 29.8in /  1008.5hPa Calm   2mph /  3.2km/h 79% 0in /  0.0mm 0 W/m2
03:22 45.9 °F /  7.7 °C 39.7 °F /  4.3 °C 29.8in /  1008.5hPa Calm   1mph /  1.6km/h 79% 0in /  0.0mm 0 W/m2
03:27 45.7 °F /  7.6 °C 39.6 °F /  4.2 °C 29.8in /  1008.5hPa Calm     79% 0in /  0.0mm 0 W/m2
03:32 45.7 °F /  7.6 °C 39.9 °F /  4.4 °C 29.8in /  1008.5hPa WSW 0.9mph /  1.4km/h 2mph /  3.2km/h 80% 0in /  0.0mm 0 W/m2
03:37 45.7 °F /  7.6 °C 39.9 °F /  4.4 °C 29.8in /  1008.5hPa Calm   1mph /  1.6km/h 80% 0in /  0.0mm 0 W/m2
03:42 45.7 °F /  7.6 °C 39.9 °F /  4.4 °C 29.8in /  1008.5hPa Calm   2mph /  3.2km/h 80% 0in /  0.0mm 0 W/m2
03:47 45.9 °F /  7.7 °C 40.1 °F /  4.5 °C 29.8in /  1008.5hPa Calm     80% 0in /  0.0mm 0 W/m2
03:52 45.7 °F /  7.6 °C 39.9 °F /  4.4 °C 29.8in /  1008.5hPa WSW 0.9mph /  1.4km/h 2mph /  3.2km/h 80% 0in /  0.0mm 0 W/m2
03:58 45.7 °F /  7.6 °C 39.9 °F /  4.4 °C 29.8in /  1008.5hPa Calm     80% 0in /  0.0mm 0 W/m2
04:03 45.7 °F /  7.6 °C 39.9 °F /  4.4 °C 29.8in /  1008.5hPa Calm   1mph /  1.6km/h 80% 0in /  0.0mm 0 W/m2
04:08 45.7 °F /  7.6 °C 39.9 °F /  4.4 °C 29.8in /  1008.5hPa Calm   1mph /  1.6km/h 80% 0in /  0.0mm 0 W/m2
04:13 45.7 °F /  7.6 °C 39.9 °F /  4.4 °C 29.8in /  1008.5hPa WSW 0.9mph /  1.4km/h 2mph /  3.2km/h 80% 0in /  0.0mm 0 W/m2
04:18 45.7 °F /  7.6 °C 39.9 °F /  4.4 °C 29.8in /  1008.5hPa Calm   1mph /  1.6km/h 80% 0in /  0.0mm 0 W/m2
04:23 45.7 °F /  7.6 °C 39.9 °F /  4.4 °C 29.8in /  1008.5hPa Calm     80% 0in /  0.0mm 0 W/m2
04:28 45.5 °F /  7.5 °C 39.7 °F /  4.3 °C 29.8in /  1008.5hPa Calm     80% 0in /  0.0mm 0 W/m2
04:33 45.3 °F /  7.4 °C 39.9 °F /  4.4 °C 29.8in /  1008.5hPa Calm     81% 0in /  0.0mm 0 W/m2
04:38 45.3 °F /  7.4 °C 39.9 °F /  4.4 °C 29.8in /  1008.5hPa Calm   1mph /  1.6km/h 81% 0in /  0.0mm 0 W/m2
04:43 45.1 °F /  7.3 °C 39.7 °F /  4.3 °C 29.8in /  1008.5hPa Calm     81% 0in /  0.0mm 0 W/m2
04:48 45.1 °F /  7.3 °C 39.7 °F /  4.3 °C 29.8in /  1008.5hPa Calm     81% 0in /  0.0mm 0 W/m2
04:53 45.1 °F /  7.3 °C 39.7 °F /  4.3 °C 29.8in /  1008.5hPa Calm     81% 0in /  0.0mm 0 W/m2
04:58 45 °F /  7.2 °C 39.6 °F /  4.2 °C 29.8in /  1008.5hPa Calm     81% 0in /  0.0mm 0 W/m2
05:03 44.8 °F /  7.1 °C 39.6 °F /  4.2 °C 29.8in /  1008.1hPa Calm     82% 0in /  0.0mm 0 W/m2
05:08 44.6 °F /  7 °C 39.4 °F /  4.1 °C 29.8in /  1008.1hPa Calm   1mph /  1.6km/h 82% 0in /  0.0mm 0 W/m2
05:13 44.4 °F /  6.9 °C 39.6 °F /  4.2 °C 29.8in /  1008.1hPa Calm     83% 0in /  0.0mm 0 W/m2
05:18 44.2 °F /  6.8 °C 39.4 °F /  4.1 °C 29.8in /  1008.1hPa Calm   1mph /  1.6km/h 83% 0in /  0.0mm 0 W/m2
05:23 44.2 °F /  6.8 °C 39.4 °F /  4.1 °C 29.8in /  1008.1hPa Calm     83% 0in /  0.0mm 0 W/m2
05:28 44.1 °F /  6.7 °C 39.2 °F /  4 °C 29.8in /  1008.5hPa Calm   1mph /  1.6km/h 83% 0in /  0.0mm 0 W/m2
05:34 43.9 °F /  6.6 °C 39 °F /  3.9 °C 29.8in /  1008.5hPa Calm   1mph /  1.6km/h 83% 0in /  0.0mm 0 W/m2
05:39 43.5 °F /  6.4 °C 38.7 °F /  3.7 °C 29.8in /  1008.1hPa Calm     83% 0in /  0.0mm 0 W/m2
05:44 43.3 °F /  6.3 °C 38.8 °F /  3.8 °C 29.8in /  1008.1hPa Calm   1mph /  1.6km/h 84% 0in /  0.0mm 0 W/m2
05:49 43.2 °F /  6.2 °C 38.7 °F /  3.7 °C 29.8in /  1008.5hPa Calm     84% 0in /  0.0mm 0 W/m2
05:54 43.2 °F /  6.2 °C 39 °F /  3.9 °C 29.8in /  1008.1hPa Calm     85% 0in /  0.0mm 0 W/m2
05:59 43 °F /  6.1 °C 38.8 °F /  3.8 °C 29.8in /  1008.5hPa Calm     85% 0in /  0.0mm 0 W/m2
06:04 42.8 °F /  6 °C 38.7 °F /  3.7 °C 29.8in /  1008.5hPa Calm     85% 0in /  0.0mm 0 W/m2
06:09 42.6 °F /  5.9 °C 38.5 °F /  3.6 °C 29.8in /  1008.5hPa Calm     85% 0in /  0.0mm 0 W/m2
06:14 42.4 °F /  5.8 °C 38.5 °F /  3.6 °C 29.8in /  1008.5hPa Calm     86% 0in /  0.0mm 0 W/m2
06:19 42.4 °F /  5.8 °C 38.5 °F /  3.6 °C 29.8in /  1008.5hPa Calm     86% 0in /  0.0mm 0 W/m2
06:24 42.3 °F /  5.7 °C 38.7 °F /  3.7 °C 29.8in /  1008.5hPa Calm     87% 0in /  0.0mm 5 W/m2
06:29 42.3 °F /  5.7 °C 38.7 °F /  3.7 °C 29.8in /  1008.5hPa Calm     87% 0in /  0.0mm 7 W/m2
06:34 42.3 °F /  5.7 °C 38.7 °F /  3.7 °C 29.8in /  1008.5hPa Calm   1mph /  1.6km/h 87% 0in /  0.0mm 11 W/m2
06:39 42.1 °F /  5.6 °C 38.5 °F /  3.6 °C 29.8in /  1008.5hPa Calm     87% 0in /  0.0mm 12 W/m2
06:44 42.1 °F /  5.6 °C 38.8 °F /  3.8 °C 29.8in /  1008.5hPa Calm   1mph /  1.6km/h 88% 0in /  0.0mm 14 W/m2
06:49 42.1 °F /  5.6 °C 38.8 °F /  3.8 °C 29.8in /  1008.5hPa Calm     88% 0in /  0.0mm 16 W/m2
06:54 42.1 °F /  5.6 °C 38.8 °F /  3.8 °C 29.8in /  1008.5hPa Calm     88% 0in /  0.0mm 19 W/m2
06:59 42.3 °F /  5.7 °C 39 °F /  3.9 °C 29.8in /  1008.5hPa Calm     88% 0in /  0.0mm 21 W/m2
07:04 42.3 °F /  5.7 °C 39 °F /  3.9 °C 29.8in /  1008.5hPa Calm     88% 0in /  0.0mm 23 W/m2
07:09 42.4 °F /  5.8 °C 39.2 °F /  4 °C 29.8in /  1008.5hPa Calm     88% 0in /  0.0mm 25 W/m2
07:15 42.6 °F /  5.9 °C 39.4 °F /  4.1 °C 29.8in /  1008.8hPa Calm     88% 0in /  0.0mm 26 W/m2
07:20 43 °F /  6.1 °C 39.7 °F /  4.3 °C 29.8in /  1008.8hPa Calm     88% 0in /  0.0mm 28 W/m2
07:25 43.2 °F /  6.2 °C 39.6 °F /  4.2 °C 29.8in /  1008.8hPa Calm     87% 0in /  0.0mm 30 W/m2
07:30 43.3 °F /  6.3 °C 39.7 °F /  4.3 °C 29.8in /  1008.8hPa Calm     87% 0in /  0.0mm 32 W/m2
07:35 43.5 °F /  6.4 °C 39.9 °F /  4.4 °C 29.8in /  1008.8hPa Calm     87% 0in /  0.0mm 37 W/m2
07:40 43.9 °F /  6.6 °C 39.9 °F /  4.4 °C 29.8in /  1008.8hPa Calm     86% 0in /  0.0mm 53 W/m2
07:45 43.9 °F /  6.6 °C 39.9 °F /  4.4 °C 29.8in /  1008.8hPa Calm     86% 0in /  0.0mm 44 W/m2
07:50 44.1 °F /  6.7 °C 40.1 °F /  4.5 °C 29.8in /  1008.8hPa Calm     86% 0in /  0.0mm 44 W/m2
07:55 44.4 °F /  6.9 °C 40.5 °F /  4.7 °C 29.8in /  1008.8hPa Calm     86% 0in /  0.0mm 102 W/m2
08:00 45 °F /  7.2 °C 40.6 °F /  4.8 °C 29.8in /  1008.8hPa Calm     85% 0in /  0.0mm 114 W/m2
08:05 45.7 °F /  7.6 °C 41.4 °F /  5.2 °C 29.8in /  1008.8hPa Calm     85% 0in /  0.0mm 216 W/m2
08:10 46.4 °F /  8 °C 41.9 °F /  5.5 °C 29.8in /  1008.8hPa Calm     84% 0in /  0.0mm 234 W/m2
08:15 47.8 °F /  8.8 °C 43 °F /  6.1 °C 29.8in /  1008.8hPa Calm     83% 0in /  0.0mm 246 W/m2
08:20 49.6 °F /  9.8 °C 44.1 °F /  6.7 °C 29.8in /  1008.8hPa Calm   2mph /  3.2km/h 81% 0in /  0.0mm 264 W/m2
08:25 51.1 °F /  10.6 °C 43.7 °F /  6.5 °C 29.8in /  1008.8hPa Calm   1mph /  1.6km/h 76% 0in /  0.0mm 274 W/m2
08:30 51.8 °F /  11 °C 43.7 °F /  6.5 °C 29.8in /  1008.8hPa Calm   1mph /  1.6km/h 74% 0in /  0.0mm 292 W/m2
08:35 52.2 °F /  11.2 °C 43.7 °F /  6.5 °C 29.8in /  1008.8hPa Calm   1mph /  1.6km/h 73% 0in /  0.0mm 304 W/m2
08:40 52.5 °F /  11.4 °C 43.7 °F /  6.5 °C 29.8in /  1008.8hPa NE 0.9mph /  1.4km/h 1mph /  1.6km/h 72% 0in /  0.0mm 322 W/m2
08:45 53.1 °F /  11.7 °C 43.9 °F /  6.6 °C 29.8in /  1008.8hPa Calm     71% 0in /  0.0mm 336 W/m2
08:50 53.4 °F /  11.9 °C 44.2 °F /  6.8 °C 29.8in /  1008.8hPa Calm     71% 0in /  0.0mm 348 W/m2
08:55 53.8 °F /  12.1 °C 44.6 °F /  7 °C 29.8in /  1008.8hPa Calm     71% 0in /  0.0mm 338 W/m2
09:00 54.1 °F /  12.3 °C 44.2 °F /  6.8 °C 29.8in /  1008.5hPa NE 0.9mph /  1.4km/h 1mph /  1.6km/h 69% 0in /  0.0mm 350 W/m2
09:06 54.5 °F /  12.5 °C 44.2 °F /  6.8 °C 29.8in /  1008.5hPa NE 0.9mph /  1.4km/h 1mph /  1.6km/h 68% 0in /  0.0mm 383 W/m2
Juneau County Weather
Compliments of Weather Underground - 4 mb